CheckWX is a tool to help pilots better visualize weather data.  It is not intended as a substitute for an official pre-flight weather briefing.

10:31:54 UTC

LIBP TAF
Pescara International Airport
Pescara, Italy
TAF LIBP 260500Z 2606/2706 VRB04KT CAVOK BECMG 2609/2611 02010KT BECMG 2617/2619 VRB04KT

Jun-26@
06:00 UTC

Jun-26 @ 06:00 UTC

Jun-26@
09:00 UTC

Jun-26 @ 09:00 UTC

TAF LIBP 260500Z 2606/2706 VRB04KT CAVOK

Expired

Wind
  • Variable at 4 KTS
Conditions
No significant weather
Cloud Levels
  • No significant clouds

Jun-26@
09:00 UTC

Jun-26 @ 09:00 UTC

Jun-26@
17:00 UTC

Jun-26 @ 17:00 UTC

BECMG 2609/2611 02010KT

Becoming

Becoming Conditions expected by Wed, Jun 26, 2019 @ 11:00 UTC

Wind
  • 020° at 10 KTS
Conditions
No significant weather
Cloud Levels
  • No significant clouds

Jun-26@
17:00 UTC

Jun-26 @ 17:00 UTC

Jun-27@
06:00 UTC

Jun-27 @ 06:00 UTC

BECMG 2617/2619 VRB04KT

Becoming

Becoming Conditions expected by Wed, Jun 26, 2019 @ 19:00 UTC

Wind
  • Variable at 4 KTS
Conditions
No significant weather
Cloud Levels
  • No significant clouds